Flight Track Log - Related Links

Times and Time Zones

All times are in EDT time to prevent confusion due to time zone crossing. See the USC250 flight status page for this flight to view local times or setup timezone preferences in your user account.

Time Position Orientation Groundspeed Altitude Reporting Facility
EDT Latitude Longitude Course Direction KTS MPH feet Rate Location/Type
Wed 06:50:24 AM 39.8833 -75.2000 142° Southeast 101 116 1,200  Level Philadelphia TRACON
Wed 06:51:54 AM 39.8500 -75.1667 142° Southeast 124 143 3,200 1,292 Climbing Philadelphia TRACON
Wed 06:52:48 AM 39.8333 -75.2000 237° Southwest 128 147 4,300 1,158 Climbing Philadelphia TRACON
Wed 06:53:48 AM 39.8167 -75.2500 247° West 130 150 5,400 895 Climbing Philadelphia TRACON
Wed 06:54:42 AM 39.8000 -75.2833 237° Southwest 128 147 6,000 333 Climbing Philadelphia TRACON
Wed 06:55:54 AM 39.7833 -75.3500 252° West 167 192 6,100  Climbing Philadelphia TRACON
Wed 06:56:48 AM 39.7667 -75.4000 247° West 173 199 6,000 -53 Descending Philadelphia TRACON
Wed 06:57:48 AM 39.7500 -75.4667 252° West 173 199 6,000  Level Philadelphia TRACON
Wed 06:58:48 AM 39.7500 -75.5167 270° West 169 194 6,000 56 Level Philadelphia TRACON
Wed 06:59:36 AM 39.7333 -75.5667 247° West 173 199 6,100  Climbing Philadelphia TRACON
Wed 07:00:37 AM 39.7333 -75.6333 270° West 175 201 6,000 -48 Descending Philadelphia TRACON
Wed 07:01:42 AM 39.7167 -75.7000 252° West 174 200 6,000  Level Philadelphia TRACON
Wed 07:02:42 AM 39.7000 -75.7500 247° West 173 199 6,000  Level Philadelphia TRACON
Wed 07:03:43 AM 39.6833 -75.8167 252° West 175 201 6,000  Level Philadelphia TRACON
Wed 07:06:05 AM 39.6500 -75.9667 254° West 173 199 6,000  Level Potomac TRACON
Wed 07:07:05 AM 39.6500 -76.0167 270° West 171 197 6,000 -99 Level Potomac TRACON
Wed 07:09:06 AM 39.6167 -76.1500 252° West 179 206 5,700 -365 Descending Potomac TRACON
Wed 07:10:06 AM 39.6000 -76.2000 247° West 191 220 4,900 -800 Descending Potomac TRACON
Wed 07:11:06 AM 39.6000 -76.2667 270° West 188 216 4,100 -474 Descending Potomac TRACON
Wed 07:12:00 AM 39.5500 -76.3000 207° Southwest 190 219 4,000 -50 Descending Potomac TRACON
Wed 07:13:06 AM 39.5000 -76.3500 218° Southwest 177 204 4,000 -50 Level Potomac TRACON
Wed 07:14:00 AM 39.4667 -76.3833 218° Southwest 178 205 3,900  Descending Potomac TRACON
Wed 07:15:00 AM 39.4333 -76.4167 218° Southwest 175 201 4,000 -211 Climbing Potomac TRACON
Wed 07:15:54 AM 39.3833 -76.4167 180° South 188 216 3,500 -474 Descending Potomac TRACON
Wed 07:16:54 AM 39.3333 -76.4333 194° South 195 224 3,100 -300 Descending Potomac TRACON
Wed 07:17:54 AM 39.2833 -76.4500 194° South 181 208 2,900 -300 Descending Potomac TRACON
Wed 07:18:54 AM 39.2333 -76.4833 207° Southwest 195 224 2,500 -421 Descending Potomac TRACON
Wed 07:19:48 AM 39.1833 -76.5000 194° South 193 222 2,100 -263 Descending Potomac TRACON
Wed 07:20:48 AM 39.1333 -76.5167 194° South 180 207 2,000 -158 Descending Potomac TRACON
Wed 07:21:42 AM 39.1333 -76.5667 270° West 178 205 1,800 -222 Descending Potomac TRACON

Login

Don't have an account? Register now (free) for customized features, flight alerts, and more!